<?xml version="1.0" encoding="UTF-8" standalone="no" ?>
<gpx xmlns="http://www.topografix.com/GPX/1/1" xmlns:xsi="http://www.w3.org/2001/XMLSchema-instance" xsi:schemaLocation="http://www.topografix.com/GPX/1/1 http://www.topografix.com/GPX/1/1/gpx.xsd" version="1.1" creator="VisuGPX - https://www.visugpx.com">
  <metadata>
    <name>balade a pornic </name>
    <desc><![CDATA[vent important de face a l\\\'aller et a moitier perdu au retour malgré tout une moyenne de 29.1 plutot content de moi ]]></desc>
  </metadata>
  <trk>
    <name><![CDATA[Sequence 2]]></name>
    <trkseg>
      <trkpt lat="47.11469" lon="-2.09884">
        <ele>-8</ele>
        <time>2014-04-08T14:09:21Z</time>
      </trkpt>
      <trkpt lat="47.11461" lon="-2.09909">
        <ele>-8</ele>
        <time>2014-04-08T14:09:25Z</time>
      </trkpt>
      <trkpt lat="47.11458" lon="-2.09933">
        <ele>-9</ele>
        <time>2014-04-08T14:09:27Z</time>
      </trkpt>
      <trkpt lat="47.11447" lon="-2.09978">
        <ele>-7</ele>
        <time>2014-04-08T14:09:34Z</time>
      </trkpt>
      <trkpt lat="47.11442" lon="-2.09998">
        <ele>-7</ele>
        <time>2014-04-08T14:09:36Z</time>
      </trkpt>
      <trkpt lat="47.1144" lon="-2.10017">
        <ele>-6</ele>
        <time>2014-04-08T14:09:40Z</time>
      </trkpt>
      <trkpt lat="47.11435" lon="-2.10033">
        <ele>-3</ele>
        <time>2014-04-08T14:09:46Z</time>
      </trkpt>
      <trkpt lat="47.11433" lon="-2.10051">
        <ele>4.6</ele>
        <time>2014-04-08T14:09:51Z</time>
      </trkpt>
      <trkpt lat="47.11434" lon="-2.10063">
        <ele>4.7</ele>
        <time>2014-04-08T14:09:53Z</time>
      </trkpt>
      <trkpt lat="47.11433" lon="-2.10107">
        <ele>4.8</ele>
        <time>2014-04-08T14:09:59Z</time>
      </trkpt>
      <trkpt lat="47.11429" lon="-2.10139">
        <ele>4</ele>
        <time>2014-04-08T14:10:03Z</time>
      </trkpt>
      <trkpt lat="47.11425" lon="-2.10176">
        <ele>2.7</ele>
        <time>2014-04-08T14:10:08Z</time>
      </trkpt>
      <trkpt lat="47.11424" lon="-2.10199">
        <ele>1</ele>
        <time>2014-04-08T14:10:12Z</time>
      </trkpt>
      <trkpt lat="47.11418" lon="-2.10231">
        <ele>1.7</ele>
        <time>2014-04-08T14:10:16Z</time>
      </trkpt>
      <trkpt lat="47.11412" lon="-2.10242">
        <ele>1.9</ele>
        <time>2014-04-08T14:10:17Z</time>
      </trkpt>
      <trkpt lat="47.11392" lon="-2.10278">
        <ele>1</ele>
        <time>2014-04-08T14:10:23Z</time>
      </trkpt>
      <trkpt lat="47.11372" lon="-2.10298">
        <ele>1</ele>
        <time>2014-04-08T14:10:29Z</time>
      </trkpt>
      <trkpt lat="47.11362" lon="-2.10315">
        <ele>2</ele>
        <time>2014-04-08T14:10:31Z</time>
      </trkpt>
      <trkpt lat="47.1135" lon="-2.10332">
        <ele>4</ele>
        <time>2014-04-08T14:10:35Z</time>
      </trkpt>
      <trkpt lat="47.11339" lon="-2.10347">
        <ele>5</ele>
        <time>2014-04-08T14:10:38Z</time>
      </trkpt>
      <trkpt lat="47.11313" lon="-2.10366">
        <ele>5</ele>
        <time>2014-04-08T14:10:44Z</time>
      </trkpt>
      <trkpt lat="47.11293" lon="-2.10375">
        <ele>6</ele>
        <time>2014-04-08T14:10:48Z</time>
      </trkpt>
      <trkpt lat="47.1128" lon="-2.10384">
        <ele>12</ele>
        <time>2014-04-08T14:10:52Z</time>
      </trkpt>
      <trkpt lat="47.11265" lon="-2.1039">
        <ele>13</ele>
        <time>2014-04-08T14:10:55Z</time>
      </trkpt>
      <trkpt lat="47.11243" lon="-2.10408">
        <ele>13</ele>
        <time>2014-04-08T14:11:02Z</time>
      </trkpt>
      <trkpt lat="47.1123" lon="-2.10423">
        <ele>9</ele>
        <time>2014-04-08T14:11:04Z</time>
      </trkpt>
      <trkpt lat="47.11211" lon="-2.10446">
        <ele>12</ele>
        <time>2014-04-08T14:11:10Z</time>
      </trkpt>
      <trkpt lat="47.11201" lon="-2.1045">
        <ele>13</ele>
        <time>2014-04-08T14:11:11Z</time>
      </trkpt>
      <trkpt lat="47.1117" lon="-2.10452">
        <ele>8</ele>
        <time>2014-04-08T14:11:16Z</time>
      </trkpt>
      <trkpt lat="47.11149" lon="-2.10434">
        <ele>8</ele>
        <time>2014-04-08T14:11:20Z</time>
      </trkpt>
      <trkpt lat="47.11137" lon="-2.10425">
        <ele>5</ele>
        <time>2014-04-08T14:11:22Z</time>
      </trkpt>
      <trkpt lat="47.11101" lon="-2.10454">
        <ele>4</ele>
        <time>2014-04-08T14:11:29Z</time>
      </trkpt>
      <trkpt lat="47.11087" lon="-2.10487">
        <ele>6</ele>
        <time>2014-04-08T14:11:32Z</time>
      </trkpt>
      <trkpt lat="47.11077" lon="-2.10515">
        <ele>6</ele>
        <time>2014-04-08T14:11:37Z</time>
      </trkpt>
      <trkpt lat="47.11066" lon="-2.1054">
        <ele>7</ele>
        <time>2014-04-08T14:11:40Z</time>
      </trkpt>
      <trkpt lat="47.11054" lon="-2.10552">
        <ele>7</ele>
        <time>2014-04-08T14:11:44Z</time>
      </trkpt>
      <trkpt lat="47.11037" lon="-2.10571">
        <ele>5</ele>
        <time>2014-04-08T14:11:48Z</time>
      </trkpt>
      <trkpt lat="47.11014" lon="-2.10595">
        <ele>4</ele>
        <time>2014-04-08T14:11:53Z</time>
      </trkpt>
      <trkpt lat="47.10998" lon="-2.1063">
        <ele>1</ele>
        <time>2014-04-08T14:11:56Z</time>
      </trkpt>
      <trkpt lat="47.10996" lon="-2.10657">
        <ele>8.3</ele>
        <time>2014-04-08T14:11:59Z</time>
      </trkpt>
      <trkpt lat="47.10982" lon="-2.10688">
        <ele>3</ele>
        <time>2014-04-08T14:12:03Z</time>
      </trkpt>
      <trkpt lat="47.10957" lon="-2.10731">
        <ele>3</ele>
        <time>2014-04-08T14:12:10Z</time>
      </trkpt>
      <trkpt lat="47.10939" lon="-2.10743">
        <ele>4</ele>
        <time>2014-04-08T14:12:12Z</time>
      </trkpt>
      <trkpt lat="47.10914" lon="-2.10733">
        <ele>1</ele>
        <time>2014-04-08T14:12:17Z</time>
      </trkpt>
      <trkpt lat="47.10897" lon="-2.10732">
        <ele>2</ele>
        <time>2014-04-08T14:12:20Z</time>
      </trkpt>
      <trkpt lat="47.10861" lon="-2.10732">
        <ele>2</ele>
        <time>2014-04-08T14:12:26Z</time>
      </trkpt>
      <trkpt lat="47.10846" lon="-2.10713">
        <ele>8.6</ele>
        <time>2014-04-08T14:12:28Z</time>
      </trkpt>
      <trkpt lat="47.10831" lon="-2.10695">
        <ele>9.6</ele>
        <time>2014-04-08T14:12:31Z</time>
      </trkpt>
      <trkpt lat="47.10801" lon="-2.10658">
        <ele>9.7</ele>
        <time>2014-04-08T14:12:37Z</time>
      </trkpt>
      <trkpt lat="47.10784" lon="-2.10643">
        <ele>9.4</ele>
        <time>2014-04-08T14:12:40Z</time>
      </trkpt>
      <trkpt lat="47.10763" lon="-2.10621">
        <ele>9</ele>
        <time>2014-04-08T14:12:45Z</time>
      </trkpt>
      <trkpt lat="47.10748" lon="-2.10599">
        <ele>1</ele>
        <time>2014-04-08T14:12:49Z</time>
      </trkpt>
      <trkpt lat="47.10723" lon="-2.10589">
        <ele>1</ele>
        <time>2014-04-08T14:12:53Z</time>
      </trkpt>
      <trkpt lat="47.10705" lon="-2.10558">
        <ele>8.9</ele>
        <time>2014-04-08T14:12:57Z</time>
      </trkpt>
      <trkpt lat="47.10697" lon="-2.10538">
        <ele>8.8</ele>
        <time>2014-04-08T14:12:59Z</time>
      </trkpt>
      <trkpt lat="47.10683" lon="-2.10479">
        <ele>2</ele>
        <time>2014-04-08T14:13:04Z</time>
      </trkpt>
      <trkpt lat="47.1069" lon="-2.1043">
        <ele>4</ele>
        <time>2014-04-08T14:13:09Z</time>
      </trkpt>
      <trkpt lat="47.10699" lon="-2.10389">
        <ele>6</ele>
        <time>2014-04-08T14:13:14Z</time>
      </trkpt>
      <trkpt lat="47.10701" lon="-2.1036">
        <ele>7</ele>
        <time>2014-04-08T14:13:17Z</time>
      </trkpt>
      <trkpt lat="47.10706" lon="-2.10343">
        <ele>7</ele>
        <time>2014-04-08T14:13:19Z</time>
      </trkpt>
      <trkpt lat="47.10718" lon="-2.10308">
        <ele>11</ele>
        <time>2014-04-08T14:13:26Z</time>
      </trkpt>
      <trkpt lat="47.10728" lon="-2.10281">
        <ele>11</ele>
        <time>2014-04-08T14:13:30Z</time>
      </trkpt>
      <trkpt lat="47.10738" lon="-2.10269">
        <ele>7</ele>
        <time>2014-04-08T14:13:33Z</time>
      </trkpt>
      <trkpt lat="47.1076" lon="-2.10262">
        <ele>7</ele>
        <time>2014-04-08T14:13:38Z</time>
      </trkpt>
      <trkpt lat="47.1078" lon="-2.10258">
        <ele>7</ele>
        <time>2014-04-08T14:13:42Z</time>
      </trkpt>
      <trkpt lat="47.10792" lon="-2.10238">
        <ele>10</ele>
        <time>2014-04-08T14:13:46Z</time>
      </trkpt>
      <trkpt lat="47.10794" lon="-2.10232">
        <ele>11</ele>
        <time>2014-04-08T14:13:47Z</time>
      </trkpt>
      <trkpt lat="47.10803" lon="-2.10198">
        <ele>12</ele>
        <time>2014-04-08T14:13:54Z</time>
      </trkpt>
      <trkpt lat="47.10816" lon="-2.10187">
        <ele>12</ele>
        <time>2014-04-08T14:13:57Z</time>
      </trkpt>
      <trkpt lat="47.1083" lon="-2.10189">
        <ele>17</ele>
        <time>2014-04-08T14:14:02Z</time>
      </trkpt>
      <trkpt lat="47.10833" lon="-2.10191">
        <ele>17</ele>
        <time>2014-04-08T14:14:03Z</time>
      </trkpt>
      <trkpt lat="47.10859" lon="-2.10206">
        <ele>17</ele>
        <time>2014-04-08T14:14:10Z</time>
      </trkpt>
      <trkpt lat="47.10871" lon="-2.10219">
        <ele>21</ele>
        <time>2014-04-08T14:14:13Z</time>
      </trkpt>
      <trkpt lat="47.10888" lon="-2.1023">
        <ele>23</ele>
        <time>2014-04-08T14:14:18Z</time>
      </trkpt>
      <trkpt lat="47.10904" lon="-2.10212">
        <ele>22</ele>
        <time>2014-04-08T14:14:22Z</time>
      </trkpt>
      <trkpt lat="47.10918" lon="-2.10188">
        <ele>23</ele>
        <time>2014-04-08T14:14:26Z</time>
      </trkpt>
      <trkpt lat="47.10929" lon="-2.10168">
        <ele>23</ele>
        <time>2014-04-08T14:14:29Z</time>
      </trkpt>
      <trkpt lat="47.10938" lon="-2.10135">
        <ele>24</ele>
        <time>2014-04-08T14:14:35Z</time>
      </trkpt>
      <trkpt lat="47.10953" lon="-2.10104">
        <ele>23</ele>
        <time>2014-04-08T14:14:38Z</time>
      </trkpt>
      <trkpt lat="47.10972" lon="-2.10069">
        <ele>22</ele>
        <time>2014-04-08T14:14:43Z</time>
      </trkpt>
      <trkpt lat="47.10986" lon="-2.10039">
        <ele>20</ele>
        <time>2014-04-08T14:14:48Z</time>
      </trkpt>
      <trkpt lat="47.10996" lon="-2.1001">
        <ele>19</ele>
        <time>2014-04-08T14:14:51Z</time>
      </trkpt>
      <trkpt lat="47.1101" lon="-2.09975">
        <ele>20</ele>
        <time>2014-04-08T14:14:56Z</time>
      </trkpt>
      <trkpt lat="47.1103" lon="-2.09933">
        <ele>20</ele>
        <time>2014-04-08T14:15:01Z</time>
      </trkpt>
      <trkpt lat="47.11039" lon="-2.09905">
        <ele>22</ele>
        <time>2014-04-08T14:15:03Z</time>
      </trkpt>
      <trkpt lat="47.11048" lon="-2.09866">
        <ele>26</ele>
        <time>2014-04-08T14:15:07Z</time>
      </trkpt>
      <trkpt lat="47.11049" lon="-2.09832">
        <ele>26</ele>
        <time>2014-04-08T14:15:10Z</time>
      </trkpt>
      <trkpt lat="47.11033" lon="-2.09782">
        <ele>28</ele>
        <time>2014-04-08T14:15:15Z</time>
      </trkpt>
      <trkpt lat="47.11025" lon="-2.09749">
        <ele>27</ele>
        <time>2014-04-08T14:15:19Z</time>
      </trkpt>
      <trkpt lat="47.11011" lon="-2.09694">
        <ele>34</ele>
        <time>2014-04-08T14:15:24Z</time>
      </trkpt>
      <trkpt lat="47.11007" lon="-2.09671">
        <ele>34</ele>
        <time>2014-04-08T14:15:25Z</time>
      </trkpt>
      <trkpt lat="47.10989" lon="-2.09608">
        <ele>29</ele>
        <time>2014-04-08T14:15:31Z</time>
      </trkpt>
      <trkpt lat="47.10975" lon="-2.09561">
        <ele>25</ele>
        <time>2014-04-08T14:15:35Z</time>
      </trkpt>
      <trkpt lat="47.10958" lon="-2.09519">
        <ele>26</ele>
        <time>2014-04-08T14:15:39Z</time>
      </trkpt>
      <trkpt lat="47.10945" lon="-2.09477">
        <ele>28</ele>
        <time>2014-04-08T14:15:43Z</time>
      </trkpt>
      <trkpt lat="47.10923" lon="-2.09425">
        <ele>26</ele>
        <time>2014-04-08T14:15:48Z</time>
      </trkpt>
      <trkpt lat="47.1091" lon="-2.09396">
        <ele>25</ele>
        <time>2014-04-08T14:15:52Z</time>
      </trkpt>
      <trkpt lat="47.1089" lon="-2.09362">
        <ele>23</ele>
        <time>2014-04-08T14:15:56Z</time>
      </trkpt>
      <trkpt lat="47.1087" lon="-2.09323">
        <ele>22</ele>
        <time>2014-04-08T14:15:59Z</time>
      </trkpt>
      <trkpt lat="47.10855" lon="-2.09278">
        <ele>23</ele>
        <time>2014-04-08T14:16:03Z</time>
      </trkpt>
      <trkpt lat="47.10846" lon="-2.09246">
        <ele>21</ele>
        <time>2014-04-08T14:16:07Z</time>
      </trkpt>
      <trkpt lat="47.1084" lon="-2.09193">
        <ele>20</ele>
        <time>2014-04-08T14:16:11Z</time>
      </trkpt>
      <trkpt lat="47.10837" lon="-2.09172">
        <ele>20</ele>
        <time>2014-04-08T14:16:13Z</time>
      </trkpt>
      <trkpt lat="47.10821" lon="-2.09116">
        <ele>20</ele>
        <time>2014-04-08T14:16:20Z</time>
      </trkpt>
      <trkpt lat="47.10792" lon="-2.09085">
        <ele>17</ele>
        <time>2014-04-08T14:16:25Z</time>
      </trkpt>
      <trkpt lat="47.10774" lon="-2.09075">
        <ele>16</ele>
        <time>2014-04-08T14:16:28Z</time>
      </trkpt>
      <trkpt lat="47.10761" lon="-2.09044">
        <ele>20</ele>
        <time>2014-04-08T14:16:33Z</time>
      </trkpt>
      <trkpt lat="47.10756" lon="-2.09015">
        <ele>19</ele>
        <time>2014-04-08T14:16:35Z</time>
      </trkpt>
      <trkpt lat="47.10746" lon="-2.08972">
        <ele>19</ele>
        <time>2014-04-08T14:16:39Z</time>
      </trkpt>
      <trkpt lat="47.10747" lon="-2.08951">
        <ele>20</ele>
        <time>2014-04-08T14:16:42Z</time>
      </trkpt>
      <trkpt lat="47.1076" lon="-2.08899">
        <ele>20</ele>
        <time>2014-04-08T14:16:48Z</time>
      </trkpt>
      <trkpt lat="47.1077" lon="-2.0887">
        <ele>21</ele>
        <time>2014-04-08T14:16:51Z</time>
      </trkpt>
      <trkpt lat="47.10771" lon="-2.0882">
        <ele>19</ele>
        <time>2014-04-08T14:16:55Z</time>
      </trkpt>
      <trkpt lat="47.10764" lon="-2.0879">
        <ele>20</ele>
        <time>2014-04-08T14:16:58Z</time>
      </trkpt>
      <trkpt lat="47.10753" lon="-2.08739">
        <ele>24</ele>
        <time>2014-04-08T14:17:03Z</time>
      </trkpt>
      <trkpt lat="47.10743" lon="-2.087">
        <ele>22</ele>
        <time>2014-04-08T14:17:07Z</time>
      </trkpt>
      <trkpt lat="47.10738" lon="-2.08671">
        <ele>22</ele>
        <time>2014-04-08T14:17:11Z</time>
      </trkpt>
      <trkpt lat="47.10726" lon="-2.08638">
        <ele>25</ele>
        <time>2014-04-08T14:17:15Z</time>
      </trkpt>
      <trkpt lat="47.10722" lon="-2.08621">
        <ele>26</ele>
        <time>2014-04-08T14:17:17Z</time>
      </trkpt>
      <trkpt lat="47.10716" lon="-2.08559">
        <ele>23</ele>
        <time>2014-04-08T14:17:23Z</time>
      </trkpt>
      <trkpt lat="47.10705" lon="-2.08498">
        <ele>24</ele>
        <time>2014-04-08T14:17:29Z</time>
      </trkpt>
      <trkpt lat="47.10694" lon="-2.08464">
        <ele>25</ele>
        <time>2014-04-08T14:17:31Z</time>
      </trkpt>
      <trkpt lat="47.10668" lon="-2.08413">
        <ele>23</ele>
        <time>2014-04-08T14:17:37Z</time>
      </trkpt>
      <trkpt lat="47.10651" lon="-2.08382">
        <ele>23</ele>
        <time>2014-04-08T14:17:39Z</time>
      </trkpt>
      <trkpt lat="47.1064" lon="-2.08363">
        <ele>23</ele>
        <time>2014-04-08T14:17:42Z</time>
      </trkpt>
      <trkpt lat="47.10603" lon="-2.08297">
        <ele>22</ele>
        <time>2014-04-08T14:17:48Z</time>
      </trkpt>
      <trkpt lat="47.10593" lon="-2.08281">
        <ele>20</ele>
        <time>2014-04-08T14:17:50Z</time>
      </trkpt>
      <trkpt lat="47.1056" lon="-2.08224">
        <ele>19</ele>
        <time>2014-04-08T14:17:56Z</time>
      </trkpt>
      <trkpt lat="47.1054" lon="-2.08181">
        <ele>21</ele>
        <time>2014-04-08T14:18:01Z</time>
      </trkpt>
      <trkpt lat="47.10515" lon="-2.08128">
        <ele>21</ele>
        <time>2014-04-08T14:18:06Z</time>
      </trkpt>
      <trkpt lat="47.10501" lon="-2.08099">
        <ele>22</ele>
        <time>2014-04-08T14:18:09Z</time>
      </trkpt>
      <trkpt lat="47.10492" lon="-2.08078">
        <ele>23</ele>
        <time>2014-04-08T14:18:10Z</time>
      </trkpt>
      <trkpt lat="47.1046" lon="-2.08029">
        <ele>24</ele>
        <time>2014-04-08T14:18:16Z</time>
      </trkpt>
      <trkpt lat="47.10439" lon="-2.08006">
        <ele>23</ele>
        <time>2014-04-08T14:18:20Z</time>
      </trkpt>
      <trkpt lat="47.10427" lon="-2.07981">
        <ele>23</ele>
        <time>2014-04-08T14:18:24Z</time>
      </trkpt>
      <trkpt lat="47.10402" lon="-2.07914">
        <ele>22</ele>
        <time>2014-04-08T14:18:29Z</time>
      </trkpt>
      <trkpt lat="47.10395" lon="-2.07871">
        <ele>23</ele>
        <time>2014-04-08T14:18:33Z</time>
      </trkpt>
      <trkpt lat="47.10395" lon="-2.0784">
        <ele>21</ele>
        <time>2014-04-08T14:18:36Z</time>
      </trkpt>
      <trkpt lat="47.10393" lon="-2.07814">
        <ele>20</ele>
        <time>2014-04-08T14:18:40Z</time>
      </trkpt>
      <trkpt lat="47.10397" lon="-2.07788">
        <ele>20</ele>
        <time>2014-04-08T14:18:45Z</time>
      </trkpt>
      <trkpt lat="47.10408" lon="-2.07745">
        <ele>17</ele>
        <time>2014-04-08T14:18:50Z</time>
      </trkpt>
      <trkpt lat="47.10411" lon="-2.07736">
        <ele>18</ele>
        <time>2014-04-08T14:18:51Z</time>
      </trkpt>
      <trkpt lat="47.10418" lon="-2.07685">
        <ele>20</ele>
        <time>2014-04-08T14:18:56Z</time>
      </trkpt>
      <trkpt lat="47.1041" lon="-2.07652">
        <ele>18</ele>
        <time>2014-04-08T14:19:00Z</time>
      </trkpt>
      <trkpt lat="47.10401" lon="-2.07618">
        <ele>20</ele>
        <time>2014-04-08T14:19:05Z</time>
      </trkpt>
      <trkpt lat="47.10397" lon="-2.07599">
        <ele>20</ele>
        <time>2014-04-08T14:19:08Z</time>
      </trkpt>
      <trkpt lat="47.10388" lon="-2.07573">
        <ele>21</ele>
        <time>2014-04-08T14:19:10Z</time>
      </trkpt>
      <trkpt lat="47.1037" lon="-2.0752">
        <ele>23</ele>
        <time>2014-04-08T14:19:17Z</time>
      </trkpt>
      <trkpt lat="47.10358" lon="-2.0749">
        <ele>22</ele>
        <time>2014-04-08T14:19:20Z</time>
      </trkpt>
      <trkpt lat="47.10363" lon="-2.0746">
        <ele>23</ele>
        <time>2014-04-08T14:19:24Z</time>
      </trkpt>
      <trkpt lat="47.10367" lon="-2.07445">
        <ele>22</ele>
        <time>2014-04-08T14:19:27Z</time>
      </trkpt>
      <trkpt lat="47.10378" lon="-2.07407">
        <ele>25</ele>
        <time>2014-04-08T14:19:32Z</time>
      </trkpt>
      <trkpt lat="47.10383" lon="-2.07379">
        <ele>23</ele>
        <time>2014-04-08T14:19:37Z</time>
      </trkpt>
      <trkpt lat="47.10389" lon="-2.07337">
        <ele>23</ele>
        <time>2014-04-08T14:19:42Z</time>
      </trkpt>
      <trkpt lat="47.10392" lon="-2.07325">
        <ele>22</ele>
        <time>2014-04-08T14:19:43Z</time>
      </trkpt>
      <trkpt lat="47.10406" lon="-2.07292">
        <ele>22</ele>
        <time>2014-04-08T14:19:49Z</time>
      </trkpt>
      <trkpt lat="47.10418" lon="-2.07269">
        <ele>25</ele>
        <time>2014-04-08T14:19:52Z</time>
      </trkpt>
      <trkpt lat="47.10425" lon="-2.07258">
        <ele>26</ele>
        <time>2014-04-08T14:19:55Z</time>
      </trkpt>
      <trkpt lat="47.1044" lon="-2.07218">
        <ele>27</ele>
        <time>2014-04-08T14:20:00Z</time>
      </trkpt>
      <trkpt lat="47.10446" lon="-2.07204">
        <ele>28</ele>
        <time>2014-04-08T14:20:02Z</time>
      </trkpt>
      <trkpt lat="47.10449" lon="-2.07159">
        <ele>29</ele>
        <time>2014-04-08T14:20:09Z</time>
      </trkpt>
      <trkpt lat="47.10448" lon="-2.07127">
        <ele>32</ele>
        <time>2014-04-08T14:20:13Z</time>
      </trkpt>
      <trkpt lat="47.10449" lon="-2.07102">
        <ele>32</ele>
        <time>2014-04-08T14:20:15Z</time>
      </trkpt>
      <trkpt lat="47.10453" lon="-2.0706">
        <ele>31</ele>
        <time>2014-04-08T14:20:21Z</time>
      </trkpt>
      <trkpt lat="47.10458" lon="-2.07036">
        <ele>32</ele>
        <time>2014-04-08T14:20:23Z</time>
      </trkpt>
      <trkpt lat="47.10468" lon="-2.06997">
        <ele>33</ele>
        <time>2014-04-08T14:20:28Z</time>
      </trkpt>
      <trkpt lat="47.10473" lon="-2.06982">
        <ele>34</ele>
        <time>2014-04-08T14:20:31Z</time>
      </trkpt>
      <trkpt lat="47.10489" lon="-2.06937">
        <ele>33</ele>
        <time>2014-04-08T14:20:37Z</time>
      </trkpt>
      <trkpt lat="47.10498" lon="-2.06917">
        <ele>34</ele>
        <time>2014-04-08T14:20:41Z</time>
      </trkpt>
      <trkpt lat="47.10506" lon="-2.06901">
        <ele>36</ele>
        <time>2014-04-08T14:20:46Z</time>
      </trkpt>
      <trkpt lat="47.10499" lon="-2.06874">
        <ele>36</ele>
        <time>2014-04-08T14:20:50Z</time>
      </trkpt>
      <trkpt lat="47.10493" lon="-2.06839">
        <ele>36</ele>
        <time>2014-04-08T14:20:54Z</time>
      </trkpt>
      <trkpt lat="47.10486" lon="-2.06812">
        <ele>36</ele>
        <time>2014-04-08T14:20:56Z</time>
      </trkpt>
      <trkpt lat="47.10479" lon="-2.06772">
        <ele>35</ele>
        <time>2014-04-08T14:21:00Z</time>
      </trkpt>
      <trkpt lat="47.10466" lon="-2.06727">
        <ele>36</ele>
        <time>2014-04-08T14:21:05Z</time>
      </trkpt>
      <trkpt lat="47.10454" lon="-2.06689">
        <ele>35</ele>
        <time>2014-04-08T14:21:09Z</time>
      </trkpt>
      <trkpt lat="47.10435" lon="-2.06631">
        <ele>35</ele>
        <time>2014-04-08T14:21:15Z</time>
      </trkpt>
      <trkpt lat="47.10426" lon="-2.06603">
        <ele>35</ele>
        <time>2014-04-08T14:21:18Z</time>
      </trkpt>
      <trkpt lat="47.10413" lon="-2.06563">
        <ele>36</ele>
        <time>2014-04-08T14:21:22Z</time>
      </trkpt>
      <trkpt lat="47.10407" lon="-2.06545">
        <ele>35</ele>
        <time>2014-04-08T14:21:25Z</time>
      </trkpt>
      <trkpt lat="47.10388" lon="-2.06486">
        <ele>33</ele>
        <time>2014-04-08T14:21:31Z</time>
      </trkpt>
      <trkpt lat="47.10378" lon="-2.06444">
        <ele>34</ele>
        <time>2014-04-08T14:21:35Z</time>
      </trkpt>
      <trkpt lat="47.10367" lon="-2.064">
        <ele>36</ele>
        <time>2014-04-08T14:21:39Z</time>
      </trkpt>
      <trkpt lat="47.10353" lon="-2.06357">
        <ele>36</ele>
        <time>2014-04-08T14:21:43Z</time>
      </trkpt>
      <trkpt lat="47.1034" lon="-2.06313">
        <ele>36</ele>
        <time>2014-04-08T14:21:46Z</time>
      </trkpt>
      <trkpt lat="47.1033" lon="-2.0627">
        <ele>37</ele>
        <time>2014-04-08T14:21:50Z</time>
      </trkpt>
      <trkpt lat="47.10318" lon="-2.0623">
        <ele>36</ele>
        <time>2014-04-08T14:21:54Z</time>
      </trkpt>
      <trkpt lat="47.10307" lon="-2.06188">
        <ele>36</ele>
        <time>2014-04-08T14:21:59Z</time>
      </trkpt>
      <trkpt lat="47.10295" lon="-2.06143">
        <ele>37</ele>
        <time>2014-04-08T14:22:02Z</time>
      </trkpt>
      <trkpt lat="47.10279" lon="-2.06099">
        <ele>36</ele>
        <time>2014-04-08T14:22:07Z</time>
      </trkpt>
      <trkpt lat="47.10264" lon="-2.06056">
        <ele>35</ele>
        <time>2014-04-08T14:22:11Z</time>
      </trkpt>
      <trkpt lat="47.1025" lon="-2.06012">
        <ele>37</ele>
        <time>2014-04-08T14:22:15Z</time>
      </trkpt>
      <trkpt lat="47.10235" lon="-2.05968">
        <ele>35</ele>
        <time>2014-04-08T14:22:18Z</time>
      </trkpt>
      <trkpt lat="47.1022" lon="-2.05922">
        <ele>36</ele>
        <time>2014-04-08T14:22:22Z</time>
      </trkpt>
      <trkpt lat="47.10205" lon="-2.05881">
        <ele>36</ele>
        <time>2014-04-08T14:22:26Z</time>
      </trkpt>
      <trkpt lat="47.10198" lon="-2.05858">
        <ele>37</ele>
        <time>2014-04-08T14:22:29Z</time>
      </trkpt>
      <trkpt lat="47.10177" lon="-2.05793">
        <ele>39</ele>
        <time>2014-04-08T14:22:34Z</time>
      </trkpt>
      <trkpt lat="47.10163" lon="-2.05749">
        <ele>36</ele>
        <time>2014-04-08T14:22:39Z</time>
      </trkpt>
      <trkpt lat="47.10155" lon="-2.05727">
        <ele>36</ele>
        <time>2014-04-08T14:22:40Z</time>
      </trkpt>
      <trkpt lat="47.10135" lon="-2.05659">
        <ele>37</ele>
        <time>2014-04-08T14:22:46Z</time>
      </trkpt>
      <trkpt lat="47.10119" lon="-2.05617">
        <ele>35</ele>
        <time>2014-04-08T14:22:50Z</time>
      </trkpt>
      <trkpt lat="47.10103" lon="-2.05576">
        <ele>36</ele>
        <time>2014-04-08T14:22:54Z</time>
      </trkpt>
      <trkpt lat="47.10087" lon="-2.05531">
        <ele>33</ele>
        <time>2014-04-08T14:22:58Z</time>
      </trkpt>
      <trkpt lat="47.1007" lon="-2.05473">
        <ele>33</ele>
        <time>2014-04-08T14:23:03Z</time>
      </trkpt>
      <trkpt lat="47.10056" lon="-2.05423">
        <ele>31</ele>
        <time>2014-04-08T14:23:07Z</time>
      </trkpt>
      <trkpt lat="47.1004" lon="-2.05375">
        <ele>31</ele>
        <time>2014-04-08T14:23:11Z</time>
      </trkpt>
      <trkpt lat="47.10025" lon="-2.0533">
        <ele>31</ele>
        <time>2014-04-08T14:23:15Z</time>
      </trkpt>
      <trkpt lat="47.10008" lon="-2.0528">
        <ele>31</ele>
        <time>2014-04-08T14:23:19Z</time>
      </trkpt>
      <trkpt lat="47.09991" lon="-2.05231">
        <ele>30</ele>
        <time>2014-04-08T14:23:24Z</time>
      </trkpt>
      <trkpt lat="47.09974" lon="-2.05184">
        <ele>30</ele>
        <time>2014-04-08T14:23:28Z</time>
      </trkpt>
      <trkpt lat="47.09958" lon="-2.05139">
        <ele>30</ele>
        <time>2014-04-08T14:23:32Z</time>
      </trkpt>
      <trkpt lat="47.09942" lon="-2.05091">
        <ele>32</ele>
        <time>2014-04-08T14:23:35Z</time>
      </trkpt>
      <trkpt lat="47.09929" lon="-2.0504">
        <ele>31</ele>
        <time>2014-04-08T14:23:39Z</time>
      </trkpt>
      <trkpt lat="47.09913" lon="-2.04992">
        <ele>29</ele>
        <time>2014-04-08T14:23:43Z</time>
      </trkpt>
      <trkpt lat="47.09897" lon="-2.04941">
        <ele>30</ele>
        <time>2014-04-08T14:23:48Z</time>
      </trkpt>
      <trkpt lat="47.09888" lon="-2.04915">
        <ele>29</ele>
        <time>2014-04-08T14:23:49Z</time>
      </trkpt>
      <trkpt lat="47.09867" lon="-2.04838">
        <ele>30</ele>
        <time>2014-04-08T14:23:56Z</time>
      </trkpt>
      <trkpt lat="47.09853" lon="-2.04789">
        <ele>30</ele>
        <time>2014-04-08T14:24:00Z</time>
      </trkpt>
      <trkpt lat="47.09838" lon="-2.04744">
        <ele>31</ele>
        <time>2014-04-08T14:24:04Z</time>
      </trkpt>
      <trkpt lat="47.09822" lon="-2.04701">
        <ele>31</ele>
        <time>2014-04-08T14:24:07Z</time>
      </trkpt>
      <trkpt lat="47.09812" lon="-2.04658">
        <ele>32</ele>
        <time>2014-04-08T14:24:11Z</time>
      </trkpt>
      <trkpt lat="47.09798" lon="-2.04612">
        <ele>33</ele>
        <time>2014-04-08T14:24:15Z</time>
      </trkpt>
      <trkpt lat="47.09784" lon="-2.04568">
        <ele>33</ele>
        <time>2014-04-08T14:24:20Z</time>
      </trkpt>
      <trkpt lat="47.09771" lon="-2.04523">
        <ele>32</ele>
        <time>2014-04-08T14:24:24Z</time>
      </trkpt>
      <trkpt lat="47.09759" lon="-2.04478">
        <ele>31</ele>
        <time>2014-04-08T14:24:28Z</time>
      </trkpt>
      <trkpt lat="47.09745" lon="-2.0443">
        <ele>32</ele>
        <time>2014-04-08T14:24:32Z</time>
      </trkpt>
      <trkpt lat="47.09728" lon="-2.04385">
        <ele>31</ele>
        <time>2014-04-08T14:24:36Z</time>
      </trkpt>
      <trkpt lat="47.09712" lon="-2.04339">
        <ele>33</ele>
        <time>2014-04-08T14:24:39Z</time>
      </trkpt>
      <trkpt lat="47.09693" lon="-2.04296">
        <ele>33</ele>
        <time>2014-04-08T14:24:43Z</time>
      </trkpt>
      <trkpt lat="47.09673" lon="-2.04261">
        <ele>33</ele>
        <time>2014-04-08T14:24:47Z</time>
      </trkpt>
      <trkpt lat="47.09651" lon="-2.04226">
        <ele>33</ele>
        <time>2014-04-08T14:24:52Z</time>
      </trkpt>
      <trkpt lat="47.09628" lon="-2.04192">
        <ele>34</ele>
        <time>2014-04-08T14:24:56Z</time>
      </trkpt>
      <trkpt lat="47.09605" lon="-2.04158">
        <ele>34</ele>
        <time>2014-04-08T14:25:00Z</time>
      </trkpt>
      <trkpt lat="47.09594" lon="-2.04141">
        <ele>34</ele>
        <time>2014-04-08T14:25:01Z</time>
      </trkpt>
      <trkpt lat="47.09567" lon="-2.04098">
        <ele>37</ele>
        <time>2014-04-08T14:25:06Z</time>
      </trkpt>
      <trkpt lat="47.09544" lon="-2.04058">
        <ele>36</ele>
        <time>2014-04-08T14:25:11Z</time>
      </trkpt>
      <trkpt lat="47.09521" lon="-2.04026">
        <ele>37</ele>
        <time>2014-04-08T14:25:15Z</time>
      </trkpt>
      <trkpt lat="47.09501" lon="-2.03993">
        <ele>39</ele>
        <time>2014-04-08T14:25:19Z</time>
      </trkpt>
      <trkpt lat="47.09476" lon="-2.03954">
        <ele>37</ele>
        <time>2014-04-08T14:25:24Z</time>
      </trkpt>
      <trkpt lat="47.09464" lon="-2.03938">
        <ele>36</ele>
        <time>2014-04-08T14:25:27Z</time>
      </trkpt>
      <trkpt lat="47.09441" lon="-2.03905">
        <ele>36</ele>
        <time>2014-04-08T14:25:31Z</time>
      </trkpt>
      <trkpt lat="47.09424" lon="-2.03879">
        <ele>37</ele>
        <time>2014-04-08T14:25:33Z</time>
      </trkpt>
      <trkpt lat="47.09392" lon="-2.03826">
        <ele>35</ele>
        <time>2014-04-08T14:25:40Z</time>
      </trkpt>
      <trkpt lat="47.09371" lon="-2.03791">
        <ele>37</ele>
        <time>2014-04-08T14:25:45Z</time>
      </trkpt>
      <trkpt lat="47.09367" lon="-2.03783">
        <ele>36</ele>
        <time>2014-04-08T14:25:46Z</time>
      </trkpt>
      <trkpt lat="47.09327" lon="-2.03726">
        <ele>34</ele>
        <time>2014-04-08T14:25:52Z</time>
      </trkpt>
      <trkpt lat="47.09312" lon="-2.03702">
        <ele>35</ele>
        <time>2014-04-08T14:25:56Z</time>
      </trkpt>
      <trkpt lat="47.09293" lon="-2.0367">
        <ele>35</ele>
        <time>2014-04-08T14:26:00Z</time>
      </trkpt>
      <trkpt lat="47.09272" lon="-2.0364">
        <ele>36</ele>
        <time>2014-04-08T14:26:04Z</time>
      </trkpt>
      <trkpt lat="47.0925" lon="-2.03609">
        <ele>37</ele>
        <time>2014-04-08T14:26:08Z</time>
      </trkpt>
      <trkpt lat="47.09229" lon="-2.03574">
        <ele>39</ele>
        <time>2014-04-08T14:26:12Z</time>
      </trkpt>
      <trkpt lat="47.09207" lon="-2.03546">
        <ele>39</ele>
        <time>2014-04-08T14:26:15Z</time>
      </trkpt>
      <trkpt lat="47.09185" lon="-2.03513">
        <ele>40</ele>
        <time>2014-04-08T14:26:19Z</time>
      </trkpt>
      <trkpt lat="47.09175" lon="-2.03496">
        <ele>42</ele>
        <time>2014-04-08T14:26:22Z</time>
      </trkpt>
      <trkpt lat="47.09133" lon="-2.03427">
        <ele>42</ele>
        <time>2014-04-08T14:26:29Z</time>
      </trkpt>
      <trkpt lat="47.09127" lon="-2.03418">
        <ele>41</ele>
        <time>2014-04-08T14:26:31Z</time>
      </trkpt>
      <trkpt lat="47.09102" lon="-2.03375">
        <ele>39</ele>
        <time>2014-04-08T14:26:37Z</time>
      </trkpt>
      <trkpt lat="47.09094" lon="-2.03358">
        <ele>38</ele>
        <time>2014-04-08T14:26:38Z</time>
      </trkpt>
      <trkpt lat="47.09078" lon="-2.03317">
        <ele>39</ele>
        <time>2014-04-08T14:26:44Z</time>
      </trkpt>
      <trkpt lat="47.09065" lon="-2.03292">
        <ele>38</ele>
        <time>2014-04-08T14:26:46Z</time>
      </trkpt>
      <trkpt lat="47.09024" lon="-2.03252">
        <ele>37</ele>
        <time>2014-04-08T14:26:52Z</time>
      </trkpt>
      <trkpt lat="47.09004" lon="-2.0322">
        <ele>38</ele>
        <time>2014-04-08T14:26:56Z</time>
      </trkpt>
      <trkpt lat="47.08994" lon="-2.03207">
        <ele>37</ele>
        <time>2014-04-08T14:26:59Z</time>
      </trkpt>
      <trkpt lat="47.08954" lon="-2.03152">
        <ele>39</ele>
        <time>2014-04-08T14:27:05Z</time>
      </trkpt>
      <trkpt lat="47.08938" lon="-2.03125">
        <ele>39</ele>
        <time>2014-04-08T14:27:09Z</time>
      </trkpt>
      <trkpt lat="47.08915" lon="-2.03086">
        <ele>39</ele>
        <time>2014-04-08T14:27:12Z</time>
      </trkpt>
      <trkpt lat="47.08891" lon="-2.0305">
        <ele>39</ele>
        <time>2014-04-08T14:27:16Z</time>
      </trkpt>
      <trkpt lat="47.08863" lon="-2.03003">
        <ele>38</ele>
        <time>2014-04-08T14:27:22Z</time>
      </trkpt>
      <trkpt lat="47.08857" lon="-2.02993">
        <ele>38</ele>
        <time>2014-04-08T14:27:23Z</time>
      </trkpt>
      <trkpt lat="47.08814" lon="-2.02929">
        <ele>36</ele>
        <time>2014-04-08T14:27:30Z</time>
      </trkpt>
      <trkpt lat="47.08794" lon="-2.02897">
        <ele>35</ele>
        <time>2014-04-08T14:27:32Z</time>
      </trkpt>
      <trkpt lat="47.08767" lon="-2.02851">
        <ele>37</ele>
        <time>2014-04-08T14:27:36Z</time>
      </trkpt>
      <trkpt lat="47.08741" lon="-2.02806">
        <ele>35</ele>
        <time>2014-04-08T14:27:41Z</time>
      </trkpt>
      <trkpt lat="47.08714" lon="-2.02764">
        <ele>33</ele>
        <time>2014-04-08T14:27:45Z</time>
      </trkpt>
      <trkpt lat="47.08695" lon="-2.02733">
        <ele>32</ele>
        <time>2014-04-08T14:27:47Z</time>
      </trkpt>
      <trkpt lat="47.08658" lon="-2.02671">
        <ele>32</ele>
        <time>2014-04-08T14:27:53Z</time>
      </trkpt>
      <trkpt lat="47.0864" lon="-2.02638">
        <ele>33</ele>
        <time>2014-04-08T14:27:56Z</time>
      </trkpt>
      <trkpt lat="47.08608" lon="-2.02587">
        <ele>32</ele>
        <time>2014-04-08T14:28:02Z</time>
      </trkpt>
      <trkpt lat="47.08588" lon="-2.02555">
        <ele>32</ele>
        <time>2014-04-08T14:28:05Z</time>
      </trkpt>
      <trkpt lat="47.08562" lon="-2.02515">
        <ele>32</ele>
        <time>2014-04-08T14:28:09Z</time>
      </trkpt>
      <trkpt lat="47.08536" lon="-2.02475">
        <ele>33</ele>
        <time>2014-04-08T14:28:13Z</time>
      </trkpt>
      <trkpt lat="47.08511" lon="-2.02435">
        <ele>31</ele>
        <time>2014-04-08T14:28:17Z</time>
      </trkpt>
      <trkpt lat="47.08485" lon="-2.02395">
        <ele>30</ele>
        <time>2014-04-08T14:28:21Z</time>
      </trkpt>
      <trkpt lat="47.08459" lon="-2.02355">
        <ele>30</ele>
        <time>2014-04-08T14:28:25Z</time>
      </trkpt>
      <trkpt lat="47.08432" lon="-2.02312">
        <ele>27</ele>
        <time>2014-04-08T14:28:29Z</time>
      </trkpt>
      <trkpt lat="47.08405" lon="-2.02268">
        <ele>27</ele>
        <time>2014-04-08T14:28:33Z</time>
      </trkpt>
      <trkpt lat="47.08371" lon="-2.02212">
        <ele>27</ele>
        <time>2014-04-08T14:28:38Z</time>
      </trkpt>
      <trkpt lat="47.0835" lon="-2.02179">
        <ele>26</ele>
        <time>2014-04-08T14:28:41Z</time>
      </trkpt>
      <trkpt lat="47.08335" lon="-2.02156">
        <ele>26</ele>
        <time>2014-04-08T14:28:42Z</time>
      </trkpt>
      <trkpt lat="47.08297" lon="-2.02094">
        <ele>25</ele>
        <time>2014-04-08T14:28:48Z</time>
      </trkpt>
      <trkpt lat="47.08271" lon="-2.02049">
        <ele>24</ele>
        <time>2014-04-08T14:28:52Z</time>
      </trkpt>
      <trkpt lat="47.08247" lon="-2.02005">
        <ele>25</ele>
        <time>2014-04-08T14:28:57Z</time>
      </trkpt>
      <trkpt lat="47.08225" lon="-2.01965">
        <ele>24</ele>
        <time>2014-04-08T14:29:00Z</time>
      </trkpt>
      <trkpt lat="47.08204" lon="-2.01927">
        <ele>24</ele>
        <time>2014-04-08T14:29:04Z</time>
      </trkpt>
      <trkpt lat="47.08182" lon="-2.0189">
        <ele>25</ele>
        <time>2014-04-08T14:29:08Z</time>
      </trkpt>
      <trkpt lat="47.08154" lon="-2.01841">
        <ele>27</ele>
        <time>2014-04-08T14:29:13Z</time>
      </trkpt>
      <trkpt lat="47.08133" lon="-2.01804">
        <ele>27</ele>
        <time>2014-04-08T14:29:17Z</time>
      </trkpt>
      <trkpt lat="47.08111" lon="-2.0177">
        <ele>26</ele>
        <time>2014-04-08T14:29:22Z</time>
      </trkpt>
      <trkpt lat="47.0809" lon="-2.01732">
        <ele>27</ele>
        <time>2014-04-08T14:29:26Z</time>
      </trkpt>
      <trkpt lat="47.08069" lon="-2.01693">
        <ele>27</ele>
        <time>2014-04-08T14:29:30Z</time>
      </trkpt>
      <trkpt lat="47.08047" lon="-2.01653">
        <ele>28</ele>
        <time>2014-04-08T14:29:34Z</time>
      </trkpt>
      <trkpt lat="47.08025" lon="-2.01613">
        <ele>30</ele>
        <time>2014-04-08T14:29:38Z</time>
      </trkpt>
      <trkpt lat="47.08003" lon="-2.01574">
        <ele>28</ele>
        <time>2014-04-08T14:29:41Z</time>
      </trkpt>
      <trkpt lat="47.07978" lon="-2.01534">
        <ele>26</ele>
        <time>2014-04-08T14:29:45Z</time>
      </trkpt>
      <trkpt lat="47.07955" lon="-2.01492">
        <ele>25</ele>
        <time>2014-04-08T14:29:49Z</time>
      </trkpt>
      <trkpt lat="47.07934" lon="-2.0145">
        <ele>24</ele>
        <time>2014-04-08T14:29:53Z</time>
      </trkpt>
      <trkpt lat="47.07912" lon="-2.01406">
        <ele>24</ele>
        <time>2014-04-08T14:29:57Z</time>
      </trkpt>
      <trkpt lat="47.07897" lon="-2.01373">
        <ele>25</ele>
        <time>2014-04-08T14:30:00Z</time>
      </trkpt>
      <trkpt lat="47.07874" lon="-2.01319">
        <ele>26</ele>
        <time>2014-04-08T14:30:05Z</time>
      </trkpt>
      <trkpt lat="47.07864" lon="-2.01297">
        <ele>27</ele>
        <time>2014-04-08T14:30:07Z</time>
      </trkpt>
      <trkpt lat="47.07845" lon="-2.01254">
        <ele>27</ele>
        <time>2014-04-08T14:30:11Z</time>
      </trkpt>
      <trkpt lat="47.07823" lon="-2.01193">
        <ele>25</ele>
        <time>2014-04-08T14:30:18Z</time>
      </trkpt>
      <trkpt lat="47.07806" lon="-2.01155">
        <ele>29</ele>
        <time>2014-04-08T14:30:22Z</time>
      </trkpt>
      <trkpt lat="47.07793" lon="-2.01127">
        <ele>30</ele>
        <time>2014-04-08T14:30:25Z</time>
      </trkpt>
      <trkpt lat="47.07773" lon="-2.01083">
        <ele>30</ele>
        <time>2014-04-08T14:30:30Z</time>
      </trkpt>
      <trkpt lat="47.07766" lon="-2.01066">
        <ele>30</ele>
        <time>2014-04-08T14:30:31Z</time>
      </trkpt>
      <trkpt lat="47.07745" lon="-2.01014">
        <ele>30</ele>
        <time>2014-04-08T14:30:38Z</time>
      </trkpt>
      <trkpt lat="47.07739" lon="-2.00999">
        <ele>33</ele>
        <time>2014-04-08T14:30:39Z</time>
      </trkpt>
      <trkpt lat="47.07723" lon="-2.00961">
        <ele>34</ele>
        <time>2014-04-08T14:30:44Z</time>
      </trkpt>
      <trkpt lat="47.07713" lon="-2.0093">
        <ele>34</ele>
        <time>2014-04-08T14:30:47Z</time>
      </trkpt>
      <trkpt lat="47.07702" lon="-2.0089">
        <ele>33</ele>
        <time>2014-04-08T14:30:52Z</time>
      </trkpt>
      <trkpt lat="47.07682" lon="-2.00818">
        <ele>33</ele>
        <time>2014-04-08T14:30:58Z</time>
      </trkpt>
      <trkpt lat="47.07679" lon="-2.00809">
        <ele>32</ele>
        <time>2014-04-08T14:30:59Z</time>
      </trkpt>
      <trkpt lat="47.07665" lon="-2.00736">
        <ele>33</ele>
        <time>2014-04-08T14:31:07Z</time>
      </trkpt>
      <trkpt lat="47.07658" lon="-2.00688">
        <ele>31</ele>
        <time>2014-04-08T14:31:10Z</time>
      </trkpt>
      <trkpt lat="47.07648" lon="-2.00641">
        <ele>31</ele>
        <time>2014-04-08T14:31:14Z</time>
      </trkpt>
      <trkpt lat="47.07642" lon="-2.00616">
        <ele>31</ele>
        <time>2014-04-08T14:31:17Z</time>
      </trkpt>
      <trkpt lat="47.07626" lon="-2.00539">
        <ele>32</ele>
        <time>2014-04-08T14:31:23Z</time>
      </trkpt>
      <trkpt lat="47.07617" lon="-2.00483">
        <ele>30</ele>
        <time>2014-04-08T14:31:26Z</time>
      </trkpt>
      <trkpt lat="47.07605" lon="-2.00426">
        <ele>29</ele>
        <time>2014-04-08T14:31:30Z</time>
      </trkpt>
      <trkpt lat="47.07592" lon="-2.00369">
        <ele>29</ele>
        <time>2014-04-08T14:31:34Z</time>
      </trkpt>
      <trkpt lat="47.07579" lon="-2.00307">
        <ele>26</ele>
        <time>2014-04-08T14:31:39Z</time>
      </trkpt>
      <trkpt lat="47.07557" lon="-2.00235">
        <ele>22</ele>
        <time>2014-04-08T14:31:44Z</time>
      </trkpt>
      <trkpt lat="47.07541" lon="-2.00192">
        <ele>22</ele>
        <time>2014-04-08T14:31:46Z</time>
      </trkpt>
      <trkpt lat="47.07516" lon="-2.00138">
        <ele>22</ele>
        <time>2014-04-08T14:31:50Z</time>
      </trkpt>
      <trkpt lat="47.07504" lon="-2.00111">
        <ele>22</ele>
        <time>2014-04-08T14:31:53Z</time>
      </trkpt>
      <trkpt lat="47.07469" lon="-2.00029">
        <ele>19</ele>
        <time>2014-04-08T14:31:58Z</time>
      </trkpt>
      <trkpt lat="47.07443" lon="-1.99978">
        <ele>19</ele>
        <time>2014-04-08T14:32:02Z</time>
      </trkpt>
      <trkpt lat="47.07421" lon="-1.99928">
        <ele>18</ele>
        <time>2014-04-08T14:32:06Z</time>
      </trkpt>
      <trkpt lat="47.07411" lon="-1.99906">
        <ele>18</ele>
        <time>2014-04-08T14:32:08Z</time>
      </trkpt>
      <trkpt lat="47.07379" lon="-1.99837">
        <ele>21</ele>
        <time>2014-04-08T14:32:14Z</time>
      </trkpt>
      <trkpt lat="47.0736" lon="-1.99794">
        <ele>22</ele>
        <time>2014-04-08T14:32:18Z</time>
      </trkpt>
      <trkpt lat="47.0734" lon="-1.99752">
        <ele>23</ele>
        <time>2014-04-08T14:32:22Z</time>
      </trkpt>
      <trkpt lat="47.07319" lon="-1.99709">
        <ele>24</ele>
        <time>2014-04-08T14:32:26Z</time>
      </trkpt>
      <trkpt lat="47.07301" lon="-1.99668">
        <ele>23</ele>
        <time>2014-04-08T14:32:31Z</time>
      </trkpt>
      <trkpt lat="47.07281" lon="-1.99627">
        <ele>23</ele>
        <time>2014-04-08T14:32:35Z</time>
      </trkpt>
      <trkpt lat="47.07263" lon="-1.99589">
        <ele>23</ele>
        <time>2014-04-08T14:32:39Z</time>
      </trkpt>
      <trkpt lat="47.07245" lon="-1.99548">
        <ele>25</ele>
        <time>2014-04-08T14:32:43Z</time>
      </trkpt>
      <trkpt lat="47.07232" lon="-1.9952">
        <ele>25</ele>
        <time>2014-04-08T14:32:45Z</time>
      </trkpt>
      <trkpt lat="47.07209" lon="-1.99473">
        <ele>24</ele>
        <time>2014-04-08T14:32:50Z</time>
      </trkpt>
      <trkpt lat="47.07192" lon="-1.99432">
        <ele>24</ele>
        <time>2014-04-08T14:32:54Z</time>
      </trkpt>
      <trkpt lat="47.07175" lon="-1.9939">
        <ele>25</ele>
        <time>2014-04-08T14:32:59Z</time>
      </trkpt>
      <trkpt lat="47.07157" lon="-1.99351">
        <ele>24</ele>
        <time>2014-04-08T14:33:02Z</time>
      </trkpt>
      <trkpt lat="47.07137" lon="-1.99311">
        <ele>23</ele>
        <time>2014-04-08T14:33:07Z</time>
      </trkpt>
      <trkpt lat="47.07113" lon="-1.99261">
        <ele>22</ele>
        <time>2014-04-08T14:33:12Z</time>
      </trkpt>
      <trkpt lat="47.07096" lon="-1.99223">
        <ele>22</ele>
        <time>2014-04-08T14:33:16Z</time>
      </trkpt>
      <trkpt lat="47.0708" lon="-1.9919">
        <ele>22</ele>
        <time>2014-04-08T14:33:18Z</time>
      </trkpt>
      <trkpt lat="47.0706" lon="-1.99149">
        <ele>21</ele>
        <time>2014-04-08T14:33:22Z</time>
      </trkpt>
      <trkpt lat="47.0704" lon="-1.99104">
        <ele>21</ele>
        <time>2014-04-08T14:33:26Z</time>
      </trkpt>
      <trkpt lat="47.07018" lon="-1.9906">
        <ele>20</ele>
        <time>2014-04-08T14:33:31Z</time>
      </trkpt>
      <trkpt lat="47.06995" lon="-1.99018">
        <ele>21</ele>
        <time>2014-04-08T14:33:35Z</time>
      </trkpt>
      <trkpt lat="47.06969" lon="-1.98979">
        <ele>20</ele>
        <time>2014-04-08T14:33:39Z</time>
      </trkpt>
      <trkpt lat="47.06944" lon="-1.98943">
        <ele>19</ele>
        <time>2014-04-08T14:33:43Z</time>
      </trkpt>
      <trkpt lat="47.06915" lon="-1.98909">
        <ele>18</ele>
        <time>2014-04-08T14:33:46Z</time>
      </trkpt>
      <trkpt lat="47.06881" lon="-1.98865">
        <ele>18</ele>
        <time>2014-04-08T14:33:52Z</time>
      </trkpt>
      <trkpt lat="47.0686" lon="-1.98841">
        <ele>19</ele>
        <time>2014-04-08T14:33:54Z</time>
      </trkpt>
      <trkpt lat="47.06833" lon="-1.98809">
        <ele>19</ele>
        <time>2014-04-08T14:33:58Z</time>
      </trkpt>
      <trkpt lat="47.06805" lon="-1.98776">
        <ele>17</ele>
        <time>2014-04-08T14:34:02Z</time>
      </trkpt>
      <trkpt lat="47.06776" lon="-1.98744">
        <ele>18</ele>
        <time>2014-04-08T14:34:07Z</time>
      </trkpt>
      <trkpt lat="47.06749" lon="-1.9871">
        <ele>17</ele>
        <time>2014-04-08T14:34:11Z</time>
      </trkpt>
      <trkpt lat="47.06723" lon="-1.9868">
        <ele>18</ele>
        <time>2014-04-08T14:34:15Z</time>
      </trkpt>
      <trkpt lat="47.06699" lon="-1.98651">
        <ele>17</ele>
        <time>2014-04-08T14:34:18Z</time>
      </trkpt>
      <trkpt lat="47.06675" lon="-1.98626">
        <ele>16</ele>
        <time>2014-04-08T14:34:22Z</time>
      </trkpt>
      <trkpt lat="47.06653" lon="-1.98601">
        <ele>15</ele>
        <time>2014-04-08T14:34:26Z</time>
      </trkpt>
      <trkpt lat="47.06629" lon="-1.98577">
        <ele>14</ele>
        <time>2014-04-08T14:34:31Z</time>
      </trkpt>
      <trkpt lat="47.06599" lon="-1.98556">
        <ele>13</ele>
        <time>2014-04-08T14:34:35Z</time>
      </trkpt>
      <trkpt lat="47.06562" lon="-1.98549">
        <ele>12</ele>
        <time>2014-04-08T14:34:39Z</time>
      </trkpt>
      <trkpt lat="47.06525" lon="-1.98559">
        <ele>10</ele>
        <time>2014-04-08T14:34:43Z</time>
      </trkpt>
      <trkpt lat="47.06494" lon="-1.98561">
        <ele>8</ele>
        <time>2014-04-08T14:34:48Z</time>
      </trkpt>
      <trkpt lat="47.06486" lon="-1.98546">
        <ele>10</ele>
        <time>2014-04-08T14:34:56Z</time>
      </trkpt>
      <trkpt lat="47.06489" lon="-1.98518">
        <ele>10</ele>
        <time>2014-04-08T14:34:59Z</time>
      </trkpt>
      <trkpt lat="47.06493" lon="-1.98478">
        <ele>8</ele>
        <time>2014-04-08T14:35:03Z</time>
      </trkpt>
      <trkpt lat="47.06497" lon="-1.9844">
        <ele>7</ele>
        <time>2014-04-08T14:35:07Z</time>
      </trkpt>
      <trkpt lat="47.06503" lon="-1.98362">
        <ele>5</ele>
        <time>2014-04-08T14:35:12Z</time>
      </trkpt>
      <trkpt lat="47.06505" lon="-1.98323">
        <ele>6</ele>
        <time>2014-04-08T14:35:16Z</time>
      </trkpt>
      <trkpt lat="47.06515" lon="-1.98286">
        <ele>6</ele>
        <time>2014-04-08T14:35:19Z</time>
      </trkpt>
      <trkpt lat="47.06532" lon="-1.98245">
        <ele>8</ele>
        <time>2014-04-08T14:35:23Z</time>
      </trkpt>
      <trkpt lat="47.06544" lon="-1.98216">
        <ele>9</ele>
        <time>2014-04-08T14:35:26Z</time>
      </trkpt>
      <trkpt lat="47.06557" lon="-1.98178">
        <ele>10</ele>
        <time>2014-04-08T14:35:31Z</time>
      </trkpt>
      <trkpt lat="47.06571" lon="-1.98154">
        <ele>11</ele>
        <time>2014-04-08T14:35:35Z</time>
      </trkpt>
      <trkpt lat="47.06579" lon="-1.98143">
        <ele>11</ele>
        <time>2014-04-08T14:35:37Z</time>
      </trkpt>
      <trkpt lat="47.06597" lon="-1.9813">
        <ele>9</ele>
        <time>2014-04-08T14:35:41Z</time>
      </trkpt>
      <trkpt lat="47.06615" lon="-1.98117">
        <ele>10</ele>
        <time>2014-04-08T14:35:45Z</time>
      </trkpt>
      <trkpt lat="47.06634" lon="-1.98108">
        <ele>10</ele>
        <time>2014-04-08T14:35:51Z</time>
      </trkpt>
      <trkpt lat="47.06648" lon="-1.981">
        <ele>10</ele>
        <time>2014-04-08T14:35:54Z</time>
      </trkpt>
      <trkpt lat="47.06677" lon="-1.9808">
        <ele>15</ele>
        <time>2014-04-08T14:35:59Z</time>
      </trkpt>
      <trkpt lat="47.06701" lon="-1.98061">
        <ele>15</ele>
        <time>2014-04-08T14:36:05Z</time>
      </trkpt>
      <trkpt lat="47.0671" lon="-1.98055">
        <ele>16</ele>
        <time>2014-04-08T14:36:06Z</time>
      </trkpt>
      <trkpt lat="47.06739" lon="-1.98018">
        <ele>17</ele>
        <time>2014-04-08T14:36:12Z</time>
      </trkpt>
      <trkpt lat="47.06773" lon="-1.97981">
        <ele>16</ele>
        <time>2014-04-08T14:36:18Z</time>
      </trkpt>
      <trkpt lat="47.06791" lon="-1.97957">
        <ele>14</ele>
        <time>2014-04-08T14:36:20Z</time>
      </trkpt>
      <trkpt lat="47.06821" lon="-1.97928">
        <ele>13</ele>
        <time>2014-04-08T14:36:25Z</time>
      </trkpt>
      <trkpt lat="47.06852" lon="-1.97894">
        <ele>11</ele>
        <time>2014-04-08T14:36:29Z</time>
      </trkpt>
      <trkpt lat="47.06876" lon="-1.97873">
        <ele>12</ele>
        <time>2014-04-08T14:36:31Z</time>
      </trkpt>
      <trkpt lat="47.06903" lon="-1.97857">
        <ele>9</ele>
        <time>2014-04-08T14:36:34Z</time>
      </trkpt>
      <trkpt lat="47.06951" lon="-1.9783">
        <ele>6</ele>
        <time>2014-04-08T14:36:39Z</time>
      </trkpt>
      <trkpt lat="47.06999" lon="-1.97804">
        <ele>7</ele>
        <time>2014-04-08T14:36:44Z</time>
      </trkpt>
      <trkpt lat="47.07026" lon="-1.97788">
        <ele>4</ele>
        <time>2014-04-08T14:36:47Z</time>
      </trkpt>
      <trkpt lat="47.07084" lon="-1.97757">
        <ele>7</ele>
        <time>2014-04-08T14:36:53Z</time>
      </trkpt>
      <trkpt lat="47.07115" lon="-1.97749">
        <ele>7</ele>
        <time>2014-04-08T14:36:56Z</time>
      </trkpt>
      <trkpt lat="47.07155" lon="-1.97746">
        <ele>6</ele>
        <time>2014-04-08T14:37:00Z</time>
      </trkpt>
      <trkpt lat="47.07174" lon="-1.97742">
        <ele>7</ele>
        <time>2014-04-08T14:37:02Z</time>
      </trkpt>
      <trkpt lat="47.07233" lon="-1.97745">
        <ele>9</ele>
        <time>2014-04-08T14:37:08Z</time>
      </trkpt>
      <trkpt lat="47.07271" lon="-1.97751">
        <ele>6</ele>
        <time>2014-04-08T14:37:12Z</time>
      </trkpt>
      <trkpt lat="47.07288" lon="-1.97753">
        <ele>6</ele>
        <time>2014-04-08T14:37:14Z</time>
      </trkpt>
      <trkpt lat="47.07337" lon="-1.97745">
        <ele>6</ele>
        <time>2014-04-08T14:37:21Z</time>
      </trkpt>
      <trkpt lat="47.07368" lon="-1.97739">
        <ele>6</ele>
        <time>2014-04-08T14:37:25Z</time>
      </trkpt>
      <trkpt lat="47.07392" lon="-1.97733">
        <ele>6</ele>
        <time>2014-04-08T14:37:29Z</time>
      </trkpt>
      <trkpt lat="47.07411" lon="-1.97724">
        <ele>7</ele>
        <time>2014-04-08T14:37:32Z</time>
      </trkpt>
      <trkpt lat="47.07433" lon="-1.97717">
        <ele>7</ele>
        <time>2014-04-08T14:37:36Z</time>
      </trkpt>
      <trkpt lat="47.07443" lon="-1.97706">
        <ele>7</ele>
        <time>2014-04-08T14:37:38Z</time>
      </trkpt>
      <trkpt lat="47.07474" lon="-1.97688">
        <ele>4</ele>
        <time>2014-04-08T14:37:44Z</time>
      </trkpt>
      <trkpt lat="47.07483" lon="-1.97686">
        <ele>4</ele>
        <time>2014-04-08T14:37:47Z</time>
      </trkpt>
      <trkpt lat="47.07508" lon="-1.97666">
        <ele>8</ele>
        <time>2014-04-08T14:37:53Z</time>
      </trkpt>
      <trkpt lat="47.07538" lon="-1.97644">
        <ele>9</ele>
        <time>2014-04-08T14:37:58Z</time>
      </trkpt>
      <trkpt lat="47.07565" lon="-1.97626">
        <ele>8</ele>
        <time>2014-04-08T14:38:02Z</time>
      </trkpt>
      <trkpt lat="47.07587" lon="-1.97617">
        <ele>11</ele>
        <time>2014-04-08T14:38:06Z</time>
      </trkpt>
      <trkpt lat="47.07601" lon="-1.97611">
        <ele>14</ele>
        <time>2014-04-08T14:38:07Z</time>
      </trkpt>
      <trkpt lat="47.07635" lon="-1.97606">
        <ele>12</ele>
        <time>2014-04-08T14:38:11Z</time>
      </trkpt>
      <trkpt lat="47.07696" lon="-1.97592">
        <ele>15</ele>
        <time>2014-04-08T14:38:20Z</time>
      </trkpt>
      <trkpt lat="47.07721" lon="-1.97585">
        <ele>15</ele>
        <time>2014-04-08T14:38:22Z</time>
      </trkpt>
      <trkpt lat="47.0775" lon="-1.97576">
        <ele>14</ele>
        <time>2014-04-08T14:38:26Z</time>
      </trkpt>
      <trkpt lat="47.07786" lon="-1.97567">
        <ele>16</ele>
        <time>2014-04-08T14:38:31Z</time>
      </trkpt>
      <trkpt lat="47.07809" lon="-1.97559">
        <ele>16</ele>
        <time>2014-04-08T14:38:35Z</time>
      </trkpt>
      <trkpt lat="47.07835" lon="-1.97551">
        <ele>16</ele>
        <time>2014-04-08T14:38:39Z</time>
      </trkpt>
      <trkpt lat="47.07864" lon="-1.97538">
        <ele>15</ele>
        <time>2014-04-08T14:38:43Z</time>
      </trkpt>
      <trkpt lat="47.07889" lon="-1.97521">
        <ele>14</ele>
        <time>2014-04-08T14:38:47Z</time>
      </trkpt>
      <trkpt lat="47.07904" lon="-1.97512">
        <ele>13</ele>
        <time>2014-04-08T14:38:48Z</time>
      </trkpt>
      <trkpt lat="47.07946" lon="-1.97489">
        <ele>13</ele>
        <time>2014-04-08T14:38:54Z</time>
      </trkpt>
      <trkpt lat="47.07973" lon="-1.97474">
        <ele>12</ele>
        <time>2014-04-08T14:38:59Z</time>
      </trkpt>
      <trkpt lat="47.08" lon="-1.97458">
        <ele>13</ele>
        <time>2014-04-08T14:39:02Z</time>
      </trkpt>
      <trkpt lat="47.08019" lon="-1.97447">
        <ele>14</ele>
        <time>2014-04-08T14:39:05Z</time>
      </trkpt>
      <trkpt lat="47.0805" lon="-1.9743">
        <ele>13</ele>
        <time>2014-04-08T14:39:10Z</time>
      </trkpt>
      <trkpt lat="47.08062" lon="-1.97422">
        <ele>12</ele>
        <time>2014-04-08T14:39:13Z</time>
      </trkpt>
      <trkpt lat="47.08103" lon="-1.97396">
        <ele>10</ele>
        <time>2014-04-08T14:39:20Z</time>
      </trkpt>
      <trkpt lat="47.08108" lon="-1.97393">
        <ele>12</ele>
        <time>2014-04-08T14:39:21Z</time>
      </trkpt>
      <trkpt lat="47.08138" lon="-1.97378">
        <ele>14</ele>
        <time>2014-04-08T14:39:25Z</time>
      </trkpt>
      <trkpt lat="47.08165" lon="-1.9736">
        <ele>14</ele>
        <time>2014-04-08T14:39:30Z</time>
      </trkpt>
      <trkpt lat="47.08188" lon="-1.97346">
        <ele>14</ele>
        <time>2014-04-08T14:39:35Z</time>
      </trkpt>
      <trkpt lat="47.08207" lon="-1.97333">
        <ele>15</ele>
        <time>2014-04-08T14:39:39Z</time>
      </trkpt>
      <trkpt lat="47.08229" lon="-1.97313">
        <ele>15</ele>
        <time>2014-04-08T14:39:43Z</time>
      </trkpt>
      <trkpt lat="47.08253" lon="-1.97294">
        <ele>15</ele>
        <time>2014-04-08T14:39:47Z</time>
      </trkpt>
      <trkpt lat="47.08275" lon="-1.97273">
        <ele>16</ele>
        <time>2014-04-08T14:39:51Z</time>
      </trkpt>
      <trkpt lat="47.08298" lon="-1.97252">
        <ele>15</ele>
        <time>2014-04-08T14:39:54Z</time>
      </trkpt>
      <trkpt lat="47.08324" lon="-1.97226">
        <ele>15</ele>
        <time>2014-04-08T14:39:58Z</time>
      </trkpt>
      <trkpt lat="47.08352" lon="-1.97203">
        <ele>14</ele>
        <time>2014-04-08T14:40:02Z</time>
      </trkpt>
      <trkpt lat="47.08379" lon="-1.9718">
        <ele>14</ele>
        <time>2014-04-08T14:40:06Z</time>
      </trkpt>
      <trkpt lat="47.08393" lon="-1.97168">
        <ele>14</ele>
        <time>2014-04-08T14:40:08Z</time>
      </trkpt>
      <trkpt lat="47.08436" lon="-1.97136">
        <ele>15</ele>
        <time>2014-04-08T14:40:14Z</time>
      </trkpt>
      <trkpt lat="47.08461" lon="-1.97114">
        <ele>18</ele>
        <time>2014-04-08T14:40:18Z</time>
      </trkpt>
      <trkpt lat="47.08488" lon="-1.97093">
        <ele>20</ele>
        <time>2014-04-08T14:40:22Z</time>
      </trkpt>
      <trkpt lat="47.08509" lon="-1.97078">
        <ele>19</ele>
        <time>2014-04-08T14:40:25Z</time>
      </trkpt>
      <trkpt lat="47.08545" lon="-1.97048">
        <ele>18</ele>
        <time>2014-04-08T14:40:30Z</time>
      </trkpt>
      <trkpt lat="47.08575" lon="-1.97023">
        <ele>19</ele>
        <time>2014-04-08T14:40:34Z</time>
      </trkpt>
      <trkpt lat="47.08599" lon="-1.96996">
        <ele>20</ele>
        <time>2014-04-08T14:40:38Z</time>
      </trkpt>
      <trkpt lat="47.08621" lon="-1.96966">
        <ele>20</ele>
        <time>2014-04-08T14:40:42Z</time>
      </trkpt>
      <trkpt lat="47.08642" lon="-1.96937">
        <ele>20</ele>
        <time>2014-04-08T14:40:47Z</time>
      </trkpt>
      <trkpt lat="47.08671" lon="-1.96897">
        <ele>20</ele>
        <time>2014-04-08T14:40:52Z</time>
      </trkpt>
      <trkpt lat="47.08688" lon="-1.96875">
        <ele>21</ele>
        <time>2014-04-08T14:40:54Z</time>
      </trkpt>
      <trkpt lat="47.08706" lon="-1.96854">
        <ele>22</ele>
        <time>2014-04-08T14:40:58Z</time>
      </trkpt>
      <trkpt lat="47.08735" lon="-1.96827">
        <ele>21</ele>
        <time>2014-04-08T14:41:01Z</time>
      </trkpt>
      <trkpt lat="47.08762" lon="-1.968">
        <ele>21</ele>
        <time>2014-04-08T14:41:06Z</time>
      </trkpt>
      <trkpt lat="47.08781" lon="-1.96781">
        <ele>22</ele>
        <time>2014-04-08T14:41:08Z</time>
      </trkpt>
      <trkpt lat="47.08813" lon="-1.96748">
        <ele>20</ele>
        <time>2014-04-08T14:41:14Z</time>
      </trkpt>
      <trkpt lat="47.08846" lon="-1.96714">
        <ele>19</ele>
        <time>2014-04-08T14:41:18Z</time>
      </trkpt>
      <trkpt lat="47.08871" lon="-1.96687">
        <ele>19</ele>
        <time>2014-04-08T14:41:22Z</time>
      </trkpt>
      <trkpt lat="47.08905" lon="-1.96653">
        <ele>17</ele>
        <time>2014-04-08T14:41:27Z</time>
      </trkpt>
      <trkpt lat="47.08931" lon="-1.96624">
        <ele>17</ele>
        <time>2014-04-08T14:41:32Z</time>
      </trkpt>
      <trkpt lat="47.08951" lon="-1.96605">
        <ele>17</ele>
        <time>2014-04-08T14:41:34Z</time>
      </trkpt>
      <trkpt lat="47.0898" lon="-1.96576">
        <ele>17</ele>
        <time>2014-04-08T14:41:38Z</time>
      </trkpt>
      <trkpt lat="47.08995" lon="-1.96561">
        <ele>17</ele>
        <time>2014-04-08T14:41:41Z</time>
      </trkpt>
      <trkpt lat="47.09023" lon="-1.96532">
        <ele>18</ele>
        <time>2014-04-08T14:41:44Z</time>
      </trkpt>
      <trkpt lat="47.09067" lon="-1.96488">
        <ele>18</ele>
        <time>2014-04-08T14:41:51Z</time>
      </trkpt>
      <trkpt lat="47.09096" lon="-1.96458">
        <ele>19</ele>
        <time>2014-04-08T14:41:55Z</time>
      </trkpt>
      <trkpt lat="47.09142" lon="-1.96413">
        <ele>18</ele>
        <time>2014-04-08T14:42:01Z</time>
      </trkpt>
      <trkpt lat="47.09165" lon="-1.96389">
        <ele>17</ele>
        <time>2014-04-08T14:42:03Z</time>
      </trkpt>
      <trkpt lat="47.09198" lon="-1.96357">
        <ele>15</ele>
        <time>2014-04-08T14:42:07Z</time>
      </trkpt>
      <trkpt lat="47.0923" lon="-1.96326">
        <ele>14</ele>
        <time>2014-04-08T14:42:11Z</time>
      </trkpt>
      <trkpt lat="47.09262" lon="-1.963">
        <ele>14</ele>
        <time>2014-04-08T14:42:15Z</time>
      </trkpt>
      <trkpt lat="47.09296" lon="-1.96276">
        <ele>14</ele>
        <time>2014-04-08T14:42:19Z</time>
      </trkpt>
      <trkpt lat="47.09328" lon="-1.96261">
        <ele>14</ele>
        <time>2014-04-08T14:42:24Z</time>
      </trkpt>
      <trkpt lat="47.0936" lon="-1.96248">
        <ele>15</ele>
        <time>2014-04-08T14:42:28Z</time>
      </trkpt>
      <trkpt lat="47.09391" lon="-1.96239">
        <ele>16</ele>
        <time>2014-04-08T14:42:32Z</time>
      </trkpt>
      <trkpt lat="47.09425" lon="-1.96234">
        <ele>16</ele>
        <time>2014-04-08T14:42:36Z</time>
      </trkpt>
      <trkpt lat="47.09458" lon="-1.9623">
        <ele>17</ele>
        <time>2014-04-08T14:42:39Z</time>
      </trkpt>
      <trkpt lat="47.09491" lon="-1.96229">
        <ele>17</ele>
        <time>2014-04-08T14:42:43Z</time>
      </trkpt>
      <trkpt lat="47.09522" lon="-1.9623">
        <ele>18</ele>
        <time>2014-04-08T14:42:47Z</time>
      </trkpt>
      <trkpt lat="47.09549" lon="-1.96225">
        <ele>19</ele>
        <time>2014-04-08T14:42:51Z</time>
      </trkpt>
      <trkpt lat="47.09564" lon="-1.96221">
        <ele>19</ele>
        <time>2014-04-08T14:42:54Z</time>
      </trkpt>
      <trkpt lat="47.09606" lon="-1.96201">
        <ele>19</ele>
        <time>2014-04-08T14:43:00Z</time>
      </trkpt>
      <trkpt lat="47.09634" lon="-1.9619">
        <ele>19</ele>
        <time>2014-04-08T14:43:04Z</time>
      </trkpt>
      <trkpt lat="47.09663" lon="-1.96177">
        <ele>18</ele>
        <time>2014-04-08T14:43:08Z</time>
      </trkpt>
      <trkpt lat="47.09691" lon="-1.96161">
        <ele>18</ele>
        <time>2014-04-08T14:43:11Z</time>
      </trkpt>
      <trkpt lat="47.09718" lon="-1.96149">
        <ele>21</ele>
        <time>2014-04-08T14:43:15Z</time>
      </trkpt>
      <trkpt lat="47.09748" lon="-1.96133">
        <ele>22</ele>
        <time>2014-04-08T14:43:19Z</time>
      </trkpt>
      <trkpt lat="47.09769" lon="-1.96119">
        <ele>22</ele>
        <time>2014-04-08T14:43:23Z</time>
      </trkpt>
      <trkpt lat="47.0979" lon="-1.96105">
        <ele>21</ele>
        <time>2014-04-08T14:43:26Z</time>
      </trkpt>
      <trkpt lat="47.09839" lon="-1.96073">
        <ele>19</ele>
        <time>2014-04-08T14:43:32Z</time>
      </trkpt>
      <trkpt lat="47.09868" lon="-1.96054">
        <ele>18</ele>
        <time>2014-04-08T14:43:37Z</time>
      </trkpt>
      <trkpt lat="47.09893" lon="-1.96037">
        <ele>18</ele>
        <time>2014-04-08T14:43:40Z</time>
      </trkpt>
      <trkpt lat="47.09934" lon="-1.96009">
        <ele>15</ele>
        <time>2014-04-08T14:43:45Z</time>
      </trkpt>
      <trkpt lat="47.09968" lon="-1.95981">
        <ele>14</ele>
        <time>2014-04-08T14:43:49Z</time>
      </trkpt>
      <trkpt lat="47.10011" lon="-1.95955">
        <ele>14</ele>
        <time>2014-04-08T14:43:53Z</time>
      </trkpt>
      <trkpt lat="47.10033" lon="-1.95938">
        <ele>14</ele>
        <time>2014-04-08T14:43:56Z</time>
      </trkpt>
      <trkpt lat="47.10062" lon="-1.95913">
        <ele>14</ele>
        <time>2014-04-08T14:44:00Z</time>
      </trkpt>
      <trkpt lat="47.10076" lon="-1.95903">
        <ele>16</ele>
        <time>2014-04-08T14:44:02Z</time>
      </trkpt>
      <trkpt lat="47.10116" lon="-1.95873">
        <ele>15</ele>
        <time>2014-04-08T14:44:09Z</time>
      </trkpt>
      <trkpt lat="47.10144" lon="-1.9585">
        <ele>17</ele>
        <time>2014-04-08T14:44:12Z</time>
      </trkpt>
      <trkpt lat="47.10172" lon="-1.95831">
        <ele>15</ele>
        <time>2014-04-08T14:44:17Z</time>
      </trkpt>
      <trkpt lat="47.10201" lon="-1.95811">
        <ele>15</ele>
        <time>2014-04-08T14:44:21Z</time>
      </trkpt>
      <trkpt lat="47.10229" lon="-1.95791">
        <ele>16</ele>
        <time>2014-04-08T14:44:24Z</time>
      </trkpt>
      <trkpt lat="47.10261" lon="-1.95777">
        <ele>17</ele>
        <time>2014-04-08T14:44:28Z</time>
      </trkpt>
      <trkpt lat="47.1029" lon="-1.95763">
        <ele>18</ele>
        <time>2014-04-08T14:44:32Z</time>
      </trkpt>
      <trkpt lat="47.1032" lon="-1.95746">
        <ele>18</ele>
        <time>2014-04-08T14:44:37Z</time>
      </trkpt>
      <trkpt lat="47.10351" lon="-1.95733">
        <ele>15</ele>
        <time>2014-04-08T14:44:41Z</time>
      </trkpt>
      <trkpt lat="47.10379" lon="-1.95719">
        <ele>17</ele>
        <time>2014-04-08T14:44:45Z</time>
      </trkpt>
      <trkpt lat="47.10409" lon="-1.95706">
        <ele>18</ele>
        <time>2014-04-08T14:44:49Z</time>
      </trkpt>
      <trkpt lat="47.10439" lon="-1.95692">
        <ele>17</ele>
        <time>2014-04-08T14:44:52Z</time>
      </trkpt>
      <trkpt lat="47.10469" lon="-1.95677">
        <ele>18</ele>
        <time>2014-04-08T14:44:56Z</time>
      </trkpt>
      <trkpt lat="47.1049" lon="-1.95667">
        <ele>18</ele>
        <time>2014-04-08T14:44:59Z</time>
      </trkpt>
      <trkpt lat="47.10528" lon="-1.95648">
        <ele>18</ele>
        <time>2014-04-08T14:45:04Z</time>
      </trkpt>
      <trkpt lat="47.10557" lon="-1.95631">
        <ele>18</ele>
        <time>2014-04-08T14:45:09Z</time>
      </trkpt>
      <trkpt lat="47.10578" lon="-1.95622">
        <ele>19</ele>
        <time>2014-04-08T14:45:12Z</time>
      </trkpt>
      <trkpt lat="47.10617" lon="-1.95599">
        <ele>18</ele>
        <time>2014-04-08T14:45:16Z</time>
      </trkpt>
      <trkpt lat="47.10631" lon="-1.95589">
        <ele>17</ele>
        <time>2014-04-08T14:45:18Z</time>
      </trkpt>
      <trkpt lat="47.10672" lon="-1.95548">
        <ele>18</ele>
        <time>2014-04-08T14:45:25Z</time>
      </trkpt>
      <trkpt lat="47.107" lon="-1.95517">
        <ele>16</ele>
        <time>2014-04-08T14:45:28Z</time>
      </trkpt>
      <trkpt lat="47.10726" lon="-1.95483">
        <ele>14</ele>
        <time>2014-04-08T14:45:32Z</time>
      </trkpt>
      <trkpt lat="47.10753" lon="-1.95445">
        <ele>17</ele>
        <time>2014-04-08T14:45:36Z</time>
      </trkpt>
      <trkpt lat="47.10782" lon="-1.95399">
        <ele>16</ele>
        <time>2014-04-08T14:45:41Z</time>
      </trkpt>
      <trkpt lat="47.10798" lon="-1.95368">
        <ele>16</ele>
        <time>2014-04-08T14:45:44Z</time>
      </trkpt>
      <trkpt lat="47.10822" lon="-1.95331">
        <ele>14</ele>
        <time>2014-04-08T14:45:49Z</time>
      </trkpt>
      <trkpt lat="47.10845" lon="-1.95289">
        <ele>13</ele>
        <time>2014-04-08T14:45:53Z</time>
      </trkpt>
      <trkpt lat="47.10869" lon="-1.95249">
        <ele>14</ele>
        <time>2014-04-08T14:45:57Z</time>
      </trkpt>
      <trkpt lat="47.10897" lon="-1.95201">
        <ele>13</ele>
        <time>2014-04-08T14:46:01Z</time>
      </trkpt>
      <trkpt lat="47.10907" lon="-1.95182">
        <ele>13</ele>
        <time>2014-04-08T14:46:03Z</time>
      </trkpt>
      <trkpt lat="47.10938" lon="-1.95124">
        <ele>12</ele>
        <time>2014-04-08T14:46:09Z</time>
      </trkpt>
      <trkpt lat="47.10967" lon="-1.95077">
        <ele>8</ele>
        <time>2014-04-08T14:46:15Z</time>
      </trkpt>
      <trkpt lat="47.10986" lon="-1.95049">
        <ele>8</ele>
        <time>2014-04-08T14:46:17Z</time>
      </trkpt>
      <trkpt lat="47.11016" lon="-1.95003">
        <ele>9</ele>
        <time>2014-04-08T14:46:22Z</time>
      </trkpt>
      <trkpt lat="47.11038" lon="-1.94982">
        <ele>8</ele>
        <time>2014-04-08T14:46:26Z</time>
      </trkpt>
      <trkpt lat="47.11066" lon="-1.94951">
        <ele>7</ele>
        <time>2014-04-08T14:46:30Z</time>
      </trkpt>
      <trkpt lat="47.11083" lon="-1.94927">
        <ele>7</ele>
        <time>2014-04-08T14:46:32Z</time>
      </trkpt>
      <trkpt lat="47.11103" lon="-1.94892">
        <ele>7</ele>
        <time>2014-04-08T14:46:36Z</time>
      </trkpt>
      <trkpt lat="47.11123" lon="-1.94843">
        <ele>9</ele>
        <time>2014-04-08T14:46:41Z</time>
      </trkpt>
      <trkpt lat="47.11132" lon="-1.94824">
        <ele>9</ele>
        <time>2014-04-08T14:46:44Z</time>
      </trkpt>
      <trkpt lat="47.11156" lon="-1.94783">
        <ele>9</ele>
        <time>2014-04-08T14:46:49Z</time>
      </trkpt>
      <trkpt lat="47.11187" lon="-1.94739">
        <ele>9</ele>
        <time>2014-04-08T14:46:55Z</time>
      </trkpt>
      <trkpt lat="47.11201" lon="-1.94713">
        <ele>11</ele>
        <time>2014-04-08T14:46:58Z</time>
      </trkpt>
      <trkpt lat="47.1122" lon="-1.94669">
        <ele>12</ele>
        <time>2014-04-08T14:47:02Z</time>
      </trkpt>
      <trkpt lat="47.11223" lon="-1.9466">
        <ele>12</ele>
        <time>2014-04-08T14:47:04Z</time>
      </trkpt>
      <trkpt lat="47.11234" lon="-1.94618">
        <ele>11</ele>
        <time>2014-04-08T14:47:07Z</time>
      </trkpt>
      <trkpt lat="47.11255" lon="-1.94552">
        <ele>13</ele>
        <time>2014-04-08T14:47:13Z</time>
      </trkpt>
      <trkpt lat="47.11274" lon="-1.94511">
        <ele>13</ele>
        <time>2014-04-08T14:47:18Z</time>
      </trkpt>
      <trkpt lat="47.1129" lon="-1.94475">
        <ele>12</ele>
        <time>2014-04-08T14:47:22Z</time>
      </trkpt>
      <trkpt lat="47.11304" lon="-1.94435">
        <ele>9</ele>
        <time>2014-04-08T14:47:26Z</time>
      </trkpt>
      <trkpt lat="47.11319" lon="-1.94392">
        <ele>8</ele>
        <time>2014-04-08T14:47:30Z</time>
      </trkpt>
      <trkpt lat="47.11337" lon="-1.94351">
        <ele>7</ele>
        <time>2014-04-08T14:47:34Z</time>
      </trkpt>
      <trkpt lat="47.11364" lon="-1.94329">
        <ele>8</ele>
        <time>2014-04-08T14:47:38Z</time>
      </trkpt>
      <trkpt lat="47.11394" lon="-1.94318">
        <ele>7</ele>
        <time>2014-04-08T14:47:41Z</time>
      </trkpt>
      <trkpt lat="47.11426" lon="-1.94309">
        <ele>9</ele>
        <time>2014-04-08T14:47:45Z</time>
      </trkpt>
      <trkpt lat="47.11456" lon="-1.943">
        <ele>9</ele>
        <time>2014-04-08T14:47:49Z</time>
      </trkpt>
      <trkpt lat="47.11488" lon="-1.94291">
        <ele>8</ele>
        <time>2014-04-08T14:47:54Z</time>
      </trkpt>
      <trkpt lat="47.11519" lon="-1.9428">
        <ele>10</ele>
        <time>2014-04-08T14:47:57Z</time>
      </trkpt>
      <trkpt lat="47.11548" lon="-1.94261">
        <ele>9</ele>
        <time>2014-04-08T14:48:02Z</time>
      </trkpt>
      <trkpt lat="47.11574" lon="-1.94236">
        <ele>10</ele>
        <time>2014-04-08T14:48:06Z</time>
      </trkpt>
      <trkpt lat="47.11596" lon="-1.94214">
        <ele>9</ele>
        <time>2014-04-08T14:48:10Z</time>
      </trkpt>
      <trkpt lat="47.11613" lon="-1.94195">
        <ele>10</ele>
        <time>2014-04-08T14:48:13Z</time>
      </trkpt>
      <trkpt lat="47.11611" lon="-1.94181">
        <ele>10</ele>
        <time>2014-04-08T14:48:17Z</time>
      </trkpt>
      <trkpt lat="47.11594" lon="-1.94141">
        <ele>9</ele>
        <time>2014-04-08T14:48:22Z</time>
      </trkpt>
      <trkpt lat="47.11579" lon="-1.94114">
        <ele>8</ele>
        <time>2014-04-08T14:48:26Z</time>
      </trkpt>
      <trkpt lat="47.11559" lon="-1.94072">
        <ele>9</ele>
        <time>2014-04-08T14:48:30Z</time>
      </trkpt>
      <trkpt lat="47.11546" lon="-1.94046">
        <ele>8</ele>
        <time>2014-04-08T14:48:34Z</time>
      </trkpt>
      <trkpt lat="47.1153" lon="-1.94021">
        <ele>6</ele>
        <time>2014-04-08T14:48:38Z</time>
      </trkpt>
      <trkpt lat="47.11512" lon="-1.93992">
        <ele>6</ele>
        <time>2014-04-08T14:48:42Z</time>
      </trkpt>
      <trkpt lat="47.11488" lon="-1.93965">
        <ele>7</ele>
        <time>2014-04-08T14:48:45Z</time>
      </trkpt>
      <trkpt lat="47.11471" lon="-1.93934">
        <ele>6</ele>
        <time>2014-04-08T14:48:49Z</time>
      </trkpt>
      <trkpt lat="47.11454" lon="-1.93908">
        <ele>5</ele>
        <time>2014-04-08T14:48:54Z</time>
      </trkpt>
      <trkpt lat="47.11437" lon="-1.93878">
        <ele>4</ele>
        <time>2014-04-08T14:48:58Z</time>
      </trkpt>
      <trkpt lat="47.11424" lon="-1.9386">
        <ele>5</ele>
        <time>2014-04-08T14:49:01Z</time>
      </trkpt>
      <trkpt lat="47.11403" lon="-1.93824">
        <ele>3</ele>
        <time>2014-04-08T14:49:06Z</time>
      </trkpt>
      <trkpt lat="47.11388" lon="-1.93792">
        <ele>5</ele>
        <time>2014-04-08T14:49:11Z</time>
      </trkpt>
      <trkpt lat="47.11393" lon="-1.93771">
        <ele>7</ele>
        <time>2014-04-08T14:49:14Z</time>
      </trkpt>
      <trkpt lat="47.11408" lon="-1.93762">
        <ele>6</ele>
        <time>2014-04-08T14:49:17Z</time>
      </trkpt>
      <trkpt lat="47.11428" lon="-1.93764">
        <ele>8</ele>
        <time>2014-04-08T14:49:21Z</time>
      </trkpt>
      <trkpt lat="47.11436" lon="-1.93788">
        <ele>9</ele>
        <time>2014-04-08T14:49:26Z</time>
      </trkpt>
      <trkpt lat="47.11441" lon="-1.93803">
        <ele>9</ele>
        <time>2014-04-08T14:49:29Z</time>
      </trkpt>
      <trkpt lat="47.11455" lon="-1.93812">
        <ele>9</ele>
        <time>2014-04-08T14:49:35Z</time>
      </trkpt>
      <trkpt lat="47.11463" lon="-1.93797">
        <ele>10</ele>
        <time>2014-04-08T14:49:40Z</time>
      </trkpt>
      <trkpt lat="47.1147" lon="-1.93777">
        <ele>11</ele>
        <time>2014-04-08T14:49:51Z</time>
      </trkpt>
    </trkseg>
  </trk>
</gpx>